createdAt,value
2023-05-02T00:00:41.320Z,37
2023-05-02T00:01:42.414Z,37
2023-05-02T00:02:43.629Z,37.1
2023-05-02T00:03:44.334Z,37.1
2023-05-02T00:04:45.300Z,37.2
2023-05-02T00:05:46.217Z,37.1
2023-05-02T00:06:47.320Z,37.2
2023-05-02T00:07:48.218Z,37.2
2023-05-02T00:08:49.197Z,37.1
2023-05-02T00:09:51.099Z,37.2
2023-05-02T00:10:52.322Z,37.1
2023-05-02T00:11:54.096Z,37.1
2023-05-02T00:12:55.234Z,37
2023-05-02T00:13:56.235Z,36.8
2023-05-02T00:14:57.409Z,36.8
2023-05-02T00:15:58.356Z,36.7
2023-05-02T00:16:59.356Z,36.7
2023-05-02T00:18:00.362Z,36.8
2023-05-02T00:19:01.282Z,36.9
2023-05-02T00:20:02.426Z,36.9
2023-05-02T00:21:03.235Z,36.9
2023-05-02T00:22:04.300Z,37
2023-05-02T00:23:05.196Z,37.1
2023-05-02T00:24:06.220Z,37.1
2023-05-02T00:25:07.348Z,36.9
2023-05-02T00:26:08.256Z,36.8
2023-05-02T00:27:09.383Z,36.6
2023-05-02T00:28:10.242Z,36.5
2023-05-02T00:29:11.699Z,36.4
2023-05-02T00:30:13.820Z,36.4
2023-05-02T00:31:15.488Z,36.4
2023-05-02T00:32:16.456Z,36.4
2023-05-02T00:33:17.218Z,36.4
2023-05-02T00:34:18.389Z,36.4
2023-05-02T00:35:19.357Z,36.3
2023-05-02T00:36:20.252Z,36.5
2023-05-02T00:37:21.298Z,36.5
2023-05-02T00:38:22.299Z,36.6
2023-05-02T00:39:23.275Z,36.7
2023-05-02T00:40:24.334Z,36.7
2023-05-02T00:41:25.476Z,36.7
2023-05-02T00:42:26.319Z,36.8
2023-05-02T00:43:27.315Z,36.8
2023-05-02T00:44:28.357Z,36.8
2023-05-02T00:45:29.440Z,37.1
2023-05-02T00:46:30.481Z,37.1
2023-05-02T00:47:31.421Z,37.1
2023-05-02T00:48:32.347Z,37
2023-05-02T00:49:33.275Z,37
2023-05-02T00:50:34.256Z,37.1
2023-05-02T00:51:35.405Z,37
2023-05-02T00:52:36.448Z,37
2023-05-02T00:53:37.516Z,36.8
2023-05-02T00:54:38.236Z,37
2023-05-02T00:55:39.377Z,37.1
2023-05-02T00:56:40.297Z,37.2
2023-05-02T00:57:41.275Z,37.1
2023-05-02T00:58:42.221Z,37.1
2023-05-02T00:59:43.317Z,37.1
2023-05-02T01:00:44.280Z,37.1
2023-05-02T01:01:45.533Z,37.1
2023-05-02T01:02:46.324Z,37.2
2023-05-02T01:03:47.416Z,37.4
2023-05-02T01:04:48.416Z,37.7
2023-05-02T01:05:49.454Z,37.8
2023-05-02T01:06:50.465Z,37.7
2023-05-02T01:07:51.476Z,37.6
2023-05-02T01:08:52.518Z,37.6
2023-05-02T01:09:53.415Z,37.6
2023-05-02T01:10:54.454Z,37.7
2023-05-02T01:11:55.202Z,37.6
2023-05-02T01:12:56.256Z,37.6
2023-05-02T01:13:58.093Z,37.7
2023-05-02T01:14:59.473Z,37.6
2023-05-02T01:16:00.578Z,37.1
2023-05-02T01:17:01.293Z,37.3
2023-05-02T01:18:02.286Z,37.4
2023-05-02T01:19:03.391Z,37.4
2023-05-02T01:20:04.272Z,37.3
2023-05-02T01:21:05.325Z,37.2
2023-05-02T01:22:06.274Z,37.2
2023-05-02T01:23:07.336Z,37
2023-05-02T01:24:08.352Z,37
2023-05-02T01:25:09.413Z,37
2023-05-02T01:26:10.469Z,37.2
2023-05-02T01:27:11.423Z,37.2
2023-05-02T01:28:12.373Z,37.5
2023-05-02T01:29:13.313Z,37.5
2023-05-02T01:30:14.341Z,37.5
2023-05-02T01:31:15.406Z,37.5
2023-05-02T01:32:16.361Z,38.3
2023-05-02T01:33:17.304Z,37.8
2023-05-02T01:34:18.276Z,37.5
2023-05-02T01:35:19.272Z,37.5
2023-05-02T01:36:20.357Z,38
2023-05-02T01:37:21.313Z,37.7
2023-05-02T01:38:22.617Z,37.8
2023-05-02T01:39:23.319Z,38
2023-05-02T01:40:24.314Z,38.3
2023-05-02T01:41:25.456Z,38.7
2023-05-02T01:42:26.382Z,39
2023-05-02T01:43:27.259Z,39.6
2023-05-02T01:44:28.403Z,39.6
2023-05-02T01:45:29.494Z,39.4
2023-05-02T01:46:30.374Z,39.5
2023-05-02T01:47:31.453Z,39
2023-05-02T01:48:32.295Z,39.3
2023-05-02T01:49:33.297Z,39.4
2023-05-02T01:50:34.295Z,39.5
2023-05-02T01:51:35.639Z,39.9
2023-05-02T01:52:36.276Z,38.7
2023-05-02T01:53:37.363Z,38.5
2023-05-02T01:54:38.255Z,39.7
2023-05-02T01:55:39.337Z,40.2
2023-05-02T01:56:40.294Z,39.7
2023-05-02T01:57:41.304Z,39.4
2023-05-02T01:58:42.298Z,39.3
2023-05-02T01:59:43.476Z,39.5
2023-05-02T02:00:44.348Z,39.7
2023-05-02T02:01:45.404Z,40
2023-05-02T02:02:46.562Z,40.4
2023-05-02T02:03:47.377Z,40.4
2023-05-02T02:04:48.451Z,40
2023-05-02T02:05:49.365Z,39.8
2023-05-02T02:06:50.333Z,39.7
2023-05-02T02:07:51.297Z,40
2023-05-02T02:08:52.402Z,40.3
2023-05-02T02:09:53.259Z,40
2023-05-02T02:10:54.301Z,40.1
2023-05-02T02:11:55.397Z,40.5
2023-05-02T02:12:56.339Z,40.7
2023-05-02T02:13:57.316Z,40.5
2023-05-02T02:14:58.280Z,40.6
2023-05-02T02:15:59.397Z,40.4
2023-05-02T02:17:00.376Z,40.8
2023-05-02T02:18:01.325Z,41
2023-05-02T02:19:02.355Z,41.8
2023-05-02T02:20:03.405Z,42.6
2023-05-02T02:21:04.306Z,43.1
2023-05-02T02:22:05.325Z,42.8
2023-05-02T02:23:06.354Z,43.4
2023-05-02T02:24:07.369Z,43.6
2023-05-02T02:25:08.355Z,43.3
2023-05-02T02:26:09.356Z,43.1
2023-05-02T02:27:10.295Z,42
2023-05-02T02:28:11.329Z,41.4
2023-05-02T02:29:12.361Z,41.4
2023-05-02T02:30:13.394Z,41.2
2023-05-02T02:31:14.404Z,41
2023-05-02T02:32:15.372Z,41.1
2023-05-02T02:33:16.332Z,41.1
2023-05-02T02:34:17.368Z,41.2
2023-05-02T02:35:18.906Z,41.2
2023-05-02T02:36:20.535Z,41.3
2023-05-02T02:37:21.296Z,41.4
2023-05-02T02:38:22.333Z,41.2
2023-05-02T02:39:23.357Z,41.1
2023-05-02T02:40:24.369Z,41.2
2023-05-02T02:41:25.318Z,41.4
2023-05-02T02:42:26.395Z,41.5
2023-05-02T02:43:27.356Z,41.6
2023-05-02T02:44:28.549Z,41.5
2023-05-02T02:45:29.495Z,41.5
2023-05-02T02:46:30.406Z,40.9
2023-05-02T02:47:31.484Z,41.4
2023-05-02T02:48:32.360Z,41.6
2023-05-02T02:49:33.373Z,41.8
2023-05-02T02:50:34.331Z,42.3
2023-05-02T02:51:35.496Z,42.2
2023-05-02T02:52:36.480Z,42.2
2023-05-02T02:53:37.522Z,42.6
2023-05-02T02:54:38.545Z,43.1
2023-05-02T02:55:39.608Z,43.4
2023-05-02T02:56:40.341Z,43.3
2023-05-02T02:57:41.314Z,43.8
2023-05-02T02:58:42.334Z,43.9
2023-05-02T02:59:43.317Z,43.7
2023-05-02T03:00:44.352Z,43.6
2023-05-02T03:01:45.428Z,43.5
2023-05-02T03:02:46.484Z,43.6
2023-05-02T03:03:47.446Z,43.5
2023-05-02T03:04:48.352Z,43.4
2023-05-02T03:05:49.314Z,43.6
2023-05-02T03:06:50.334Z,43.6
2023-05-02T03:07:51.416Z,43.8
2023-05-02T03:08:52.392Z,43.4
2023-05-02T03:09:53.396Z,43.2
2023-05-02T03:10:54.368Z,43.1
2023-05-02T03:11:55.492Z,43.2
2023-05-02T03:12:56.358Z,43.2
2023-05-02T03:13:57.273Z,43.2
2023-05-02T03:14:58.300Z,43.3
2023-05-02T03:15:59.515Z,43.3
2023-05-02T03:17:00.608Z,43
2023-05-02T03:18:01.636Z,43.3
2023-05-02T03:19:02.351Z,43.6
2023-05-02T03:20:03.402Z,43.8
2023-05-02T03:21:04.392Z,43.5
2023-05-02T03:22:05.359Z,43.4
2023-05-02T03:23:06.414Z,43.3
2023-05-02T03:24:07.292Z,43
2023-05-02T03:25:08.349Z,43.2
2023-05-02T03:26:09.312Z,43.3
2023-05-02T03:27:10.615Z,43.4
2023-05-02T03:28:11.474Z,43.1
2023-05-02T03:29:12.353Z,42.9
2023-05-02T03:30:13.341Z,42.9
2023-05-02T03:31:14.403Z,42.6
2023-05-02T03:32:15.374Z,42.5
2023-05-02T03:33:16.626Z,42.3
2023-05-02T03:34:17.373Z,42.3
2023-05-02T03:35:18.317Z,41.9
2023-05-02T03:36:19.377Z,41.9
2023-05-02T03:37:20.373Z,41.8
2023-05-02T03:38:21.331Z,41.4
2023-05-02T03:39:22.421Z,41.3
2023-05-02T03:40:23.417Z,41.3
2023-05-02T03:41:24.374Z,41.7
2023-05-02T03:42:25.283Z,42
2023-05-02T03:43:26.495Z,41.6
2023-05-02T03:44:27.394Z,41.4
2023-05-02T03:45:28.539Z,41.8
2023-05-02T03:46:29.442Z,41.8
2023-05-02T03:47:30.561Z,42.1
2023-05-02T03:48:31.513Z,42.1
2023-05-02T03:49:32.513Z,41.9
2023-05-02T03:50:33.340Z,41.8
2023-05-02T03:51:34.474Z,41.6
2023-05-02T03:52:35.481Z,41.7
2023-05-02T03:53:36.534Z,41.4
2023-05-02T03:54:37.386Z,41.7
2023-05-02T03:55:38.403Z,41.5
2023-05-02T03:56:41.379Z,41.4
2023-05-02T03:57:40.413Z,41.4
2023-05-02T03:58:41.356Z,41.4
2023-05-02T03:59:42.354Z,41.5
2023-05-02T04:00:43.474Z,41.3
2023-05-02T04:01:44.564Z,41.3
2023-05-02T04:02:45.669Z,41.1
2023-05-02T04:03:46.510Z,40.8
2023-05-02T04:04:47.681Z,40.5
2023-05-02T04:05:48.423Z,40.7
2023-05-02T04:06:49.482Z,40.8
2023-05-02T04:07:50.404Z,40.9
2023-05-02T04:08:51.342Z,41.1
2023-05-02T04:09:52.338Z,41.4
2023-05-02T04:10:53.405Z,41.3
2023-05-02T04:11:54.524Z,41
2023-05-02T04:12:55.557Z,41.2
2023-05-02T04:13:56.648Z,41.3
2023-05-02T04:14:57.854Z,41.6
2023-05-02T04:15:59.536Z,41.6
2023-05-02T04:17:00.747Z,41.7
2023-05-02T04:18:01.633Z,41.8
2023-05-02T04:19:02.513Z,42
2023-05-02T04:20:05.187Z,42.2
2023-05-02T04:21:04.334Z,42.6
2023-05-02T04:22:05.355Z,43
2023-05-02T04:23:06.402Z,43.3
2023-05-02T04:24:07.343Z,43.4
2023-05-02T04:25:08.459Z,43.4
2023-05-02T04:26:09.399Z,43.6
2023-05-02T04:27:10.766Z,43.3
2023-05-02T04:28:11.900Z,43.3
2023-05-02T04:29:13.617Z,43.6
2023-05-02T04:30:15.109Z,44.1
2023-05-02T04:31:16.570Z,43.9
2023-05-02T04:32:17.312Z,44.1
2023-05-02T04:33:18.454Z,44
2023-05-02T04:34:19.494Z,44
2023-05-02T04:35:21.114Z,44.4
2023-05-02T04:36:22.739Z,44.2
2023-05-02T04:37:23.993Z,44.7
2023-05-02T04:38:25.708Z,44.4
2023-05-02T04:39:26.386Z,43.6
2023-05-02T04:40:27.413Z,44.5
2023-05-02T04:41:28.437Z,44.8
2023-05-02T04:42:29.536Z,44.6
2023-05-02T04:43:30.756Z,44.8
2023-05-02T04:44:31.434Z,45
2023-05-02T04:45:32.510Z,44.7
2023-05-02T04:46:33.739Z,44.9
2023-05-02T04:47:34.622Z,45.5
2023-05-02T04:48:35.697Z,46
2023-05-02T04:49:36.432Z,45.5
2023-05-02T04:50:37.992Z,47
2023-05-02T04:51:39.671Z,47.7
2023-05-02T04:52:40.459Z,48.1
2023-05-02T04:53:41.951Z,48.5
2023-05-02T04:54:43.502Z,48.8
2023-05-02T04:55:44.516Z,49.1
2023-05-02T04:56:45.539Z,49.1
2023-05-02T04:57:46.458Z,49.2
2023-05-02T04:58:47.345Z,49.2
2023-05-02T04:59:48.495Z,49.1
2023-05-02T05:00:49.294Z,49
2023-05-02T05:01:50.410Z,49
2023-05-02T05:02:51.748Z,49.1
2023-05-02T05:03:52.486Z,49.1
2023-05-02T05:04:53.489Z,49.3
2023-05-02T05:05:54.520Z,49.7
2023-05-02T05:06:56.363Z,49.5
2023-05-02T05:07:57.492Z,49.5
2023-05-02T05:08:58.424Z,49.5
2023-05-02T05:09:59.763Z,49.5
2023-05-02T05:11:00.483Z,49.5
2023-05-02T05:12:01.437Z,49.5
2023-05-02T05:13:02.654Z,49.5
2023-05-02T05:14:03.532Z,49.6
2023-05-02T05:15:04.525Z,49.9
2023-05-02T05:16:05.693Z,50.1
2023-05-02T05:17:06.537Z,50.2
2023-05-02T05:18:07.498Z,50.3
2023-05-02T05:19:09.613Z,50.3
2023-05-02T05:20:10.443Z,50.4
2023-05-02T05:21:11.680Z,50.5
2023-05-02T05:22:12.516Z,50.8
2023-05-02T05:23:13.914Z,51.1
2023-05-02T05:24:15.982Z,51
2023-05-02T05:25:17.613Z,51.3
2023-05-02T05:26:18.355Z,51.1
2023-05-02T05:27:19.334Z,50.7
2023-05-02T05:28:20.393Z,50.4
2023-05-02T05:29:21.755Z,50.3
2023-05-02T05:30:22.895Z,50.2
2023-05-02T05:31:25.456Z,50.2
2023-05-02T05:32:26.765Z,50.2
2023-05-02T05:33:27.423Z,49.9
2023-05-02T05:34:28.664Z,49.7
2023-05-02T05:35:29.532Z,49.7
2023-05-02T05:36:30.615Z,49.6
2023-05-02T05:37:31.527Z,49.7
2023-05-02T05:38:32.778Z,49.8
2023-05-02T05:39:33.378Z,50.2
2023-05-02T05:40:34.329Z,50.5
2023-05-02T05:41:35.393Z,50.6
2023-05-02T05:42:36.978Z,50.4
2023-05-02T05:43:39.513Z,50.7
2023-05-02T05:44:40.892Z,50.8
2023-05-02T05:45:42.599Z,50.8
2023-05-02T05:46:43.442Z,51
2023-05-02T05:47:44.484Z,51
2023-05-02T05:48:45.596Z,51
2023-05-02T05:49:46.478Z,50.9
2023-05-02T05:50:47.792Z,50.9
2023-05-02T05:51:48.468Z,51
2023-05-02T05:52:49.500Z,50.9
2023-05-02T05:53:50.698Z,50.5
2023-05-02T05:54:51.600Z,50.2
2023-05-02T05:55:52.702Z,50.2
2023-05-02T05:56:53.522Z,50.2
2023-05-02T05:57:54.451Z,50.1
2023-05-02T05:58:55.416Z,50
2023-05-02T05:59:56.376Z,49.8
2023-05-02T06:00:57.748Z,49.1
2023-05-02T06:01:58.296Z,48.7
2023-05-02T06:02:59.594Z,48.6
2023-05-02T06:04:00.601Z,49
2023-05-02T06:05:01.865Z,49.3
2023-05-02T06:06:02.565Z,49.6
2023-05-02T06:07:03.408Z,48.9
2023-05-02T06:08:04.441Z,48.7
2023-05-02T06:09:05.441Z,48.5
2023-05-02T06:10:06.424Z,48.5
2023-05-02T06:11:07.389Z,48.5
2023-05-02T06:12:08.419Z,48.3
2023-05-02T06:13:09.349Z,48.2
2023-05-02T06:14:10.491Z,47.8
2023-05-02T06:15:11.349Z,48
2023-05-02T06:16:17.663Z,48.2
2023-05-02T06:17:18.560Z,48.6
2023-05-02T06:18:19.411Z,48.6
2023-05-02T06:19:20.887Z,48.6
2023-05-02T06:20:22.924Z,48.5
2023-05-02T06:21:24.597Z,48.8
2023-05-02T06:22:25.479Z,48.6
2023-05-02T06:23:26.402Z,48.6
2023-05-02T06:24:28.196Z,48.7
2023-05-02T06:25:29.520Z,48.4
2023-05-02T06:26:30.463Z,48.4
2023-05-02T06:27:33.524Z,48.4
2023-05-02T06:28:33.289Z,48.4
2023-05-02T06:29:34.436Z,48.5
2023-05-02T06:30:35.673Z,48.6
2023-05-02T06:31:36.634Z,48.7
2023-05-02T06:32:37.816Z,48.7
2023-05-02T06:33:38.411Z,48.7
2023-05-02T06:34:39.577Z,48.8
2023-05-02T06:35:40.576Z,48.7
2023-05-02T06:36:41.527Z,48.6
2023-05-02T06:37:42.432Z,49
2023-05-02T06:38:43.460Z,49.5
2023-05-02T06:39:44.639Z,49.2
2023-05-02T06:40:45.492Z,48.9
2023-05-02T06:41:46.596Z,49.2
2023-05-02T06:42:47.474Z,49.4
2023-05-02T06:43:48.563Z,49.6
2023-05-02T06:44:49.551Z,49.7
2023-05-02T06:45:50.436Z,49.9
2023-05-02T06:46:51.365Z,50.2
2023-05-02T06:47:52.444Z,50.3
2023-05-02T06:48:53.475Z,50.1
2023-05-02T06:49:54.665Z,50.1
2023-05-02T06:50:55.389Z,50.1
2023-05-02T06:51:56.495Z,49.9
2023-05-02T06:52:57.479Z,49.2
2023-05-02T06:53:58.474Z,48.8
2023-05-02T06:54:59.486Z,48.6
2023-05-02T06:56:00.512Z,48.8
2023-05-02T06:57:02.293Z,49
2023-05-02T06:58:03.604Z,49.1
2023-05-02T06:59:04.485Z,49
2023-05-02T07:00:05.822Z,48.6
2023-05-02T07:01:06.398Z,48.8
2023-05-02T07:02:07.739Z,48
2023-05-02T07:03:08.526Z,48.3
2023-05-02T07:04:09.514Z,48
2023-05-02T07:05:10.674Z,47.3
2023-05-02T07:06:11.874Z,46.8
2023-05-02T07:07:13.516Z,48
2023-05-02T07:08:14.523Z,48.3
2023-05-02T07:09:15.432Z,48.2
2023-05-02T07:10:17.019Z,47.7
2023-05-02T07:11:18.489Z,48.1
2023-05-02T07:12:19.664Z,48.3
2023-05-02T07:13:20.473Z,48.1
2023-05-02T07:14:21.527Z,47.7
2023-05-02T07:15:22.576Z,46.8
2023-05-02T07:16:23.464Z,47.1
2023-05-02T07:17:24.547Z,46.8
2023-05-02T07:18:25.717Z,47.1
2023-05-02T07:19:26.617Z,47.3
2023-05-02T07:20:27.611Z,46.7
2023-05-02T07:21:28.532Z,45.9
2023-05-02T07:22:29.481Z,46.2
2023-05-02T07:23:30.483Z,45.3
2023-05-02T07:24:31.790Z,44.2
2023-05-02T07:25:32.436Z,44.9
2023-05-02T07:26:33.494Z,45.1
2023-05-02T07:27:34.472Z,44.3
2023-05-02T07:28:35.534Z,44.1
2023-05-02T07:29:36.506Z,44.2
2023-05-02T07:30:37.653Z,43.6
2023-05-02T07:31:39.604Z,42.9
2023-05-02T07:32:40.712Z,43
2023-05-02T07:33:41.588Z,43.3
2023-05-02T07:34:42.709Z,43.8
2023-05-02T07:35:43.492Z,44
2023-05-02T07:36:44.972Z,44
2023-05-02T07:37:46.485Z,44
2023-05-02T07:38:47.458Z,43
2023-05-02T07:39:48.407Z,42.3
2023-05-02T07:40:49.458Z,42.2
2023-05-02T07:41:50.440Z,42.9
2023-05-02T07:42:51.688Z,43.7
2023-05-02T07:43:52.661Z,43.2
2023-05-02T07:44:53.702Z,41.9
2023-05-02T07:45:54.623Z,41.3
2023-05-02T07:46:55.568Z,40.7
2023-05-02T07:47:56.555Z,40.5
2023-05-02T07:48:57.975Z,40.6
2023-05-02T07:49:59.727Z,41.5
2023-05-02T07:51:01.355Z,40.8
2023-05-02T07:52:03.538Z,40.9
2023-05-02T07:53:05.296Z,41.4
2023-05-02T07:54:06.632Z,41.5
2023-05-02T07:55:07.580Z,41.7
2023-05-02T07:56:09.579Z,41.4
2023-05-02T07:57:10.549Z,41.5
2023-05-02T07:58:11.706Z,42.1
2023-05-02T07:59:12.940Z,42.5
2023-05-02T08:00:14.779Z,41.8
2023-05-02T08:01:15.497Z,41.5
2023-05-02T08:02:16.590Z,41.5
2023-05-02T08:03:17.663Z,41.2
2023-05-02T08:04:18.720Z,41.6
2023-05-02T08:05:19.753Z,41.1
2023-05-02T08:06:20.608Z,41.1
2023-05-02T08:07:21.510Z,41.6
2023-05-02T08:08:25.057Z,41
2023-05-02T08:09:26.508Z,41.3
2023-05-02T08:10:27.546Z,41.8
2023-05-02T08:11:28.719Z,42.3
2023-05-02T08:12:29.614Z,42.9
2023-05-02T08:13:30.614Z,43.3
2023-05-02T08:14:31.668Z,42
2023-05-02T08:15:32.607Z,40.7
2023-05-02T08:16:34.553Z,39.9
2023-05-02T08:17:35.701Z,40
2023-05-02T08:18:36.543Z,40.2
2023-05-02T08:19:37.577Z,39.5
2023-05-02T08:20:38.572Z,39.7
2023-05-02T08:21:39.471Z,39.8
2023-05-02T08:22:40.639Z,39.9
2023-05-02T08:23:41.547Z,39.2
2023-05-02T08:24:42.535Z,40.1
2023-05-02T08:25:43.639Z,41.1
2023-05-02T08:26:44.790Z,41
2023-05-02T08:27:45.585Z,40.9
2023-05-02T08:28:46.490Z,39.5
2023-05-02T08:29:47.478Z,38.3
2023-05-02T08:30:48.502Z,38
2023-05-02T08:31:49.475Z,39
2023-05-02T08:32:50.626Z,38.4
2023-05-02T08:33:51.717Z,37.1
2023-05-02T08:34:52.718Z,36.9
2023-05-02T08:35:54.321Z,37.7
2023-05-02T08:36:56.836Z,38
2023-05-02T08:37:56.506Z,38.5
2023-05-02T08:38:57.563Z,38.5
2023-05-02T08:39:59.027Z,37.4
2023-05-02T08:40:59.559Z,37.3
2023-05-02T08:42:00.634Z,37
2023-05-02T08:43:01.659Z,37.5
2023-05-02T08:44:02.599Z,37.8
2023-05-02T08:45:04.044Z,37.5
2023-05-02T08:46:05.632Z,37
2023-05-02T08:47:07.046Z,36.7
2023-05-02T08:48:08.677Z,36.5
2023-05-02T08:49:09.676Z,36.8
2023-05-02T08:50:13.492Z,37.1
2023-05-02T08:51:14.758Z,37.3
2023-05-02T08:52:15.814Z,37
2023-05-02T08:53:16.596Z,37.4
2023-05-02T08:54:17.549Z,37.8
2023-05-02T08:55:19.045Z,38.1
2023-05-02T08:56:21.318Z,37.6
2023-05-02T08:57:23.014Z,37.8
2023-05-02T08:58:24.694Z,37.4
2023-05-02T08:59:25.763Z,37.2
2023-05-02T09:00:27.056Z,37.5
2023-05-02T09:01:28.838Z,37.8
2023-05-02T09:02:29.836Z,38.3
2023-05-02T09:03:30.751Z,38
2023-05-02T09:04:31.491Z,38.9
2023-05-02T09:05:32.595Z,38.3
2023-05-02T09:06:33.724Z,37.4
2023-05-02T09:07:34.659Z,35.7
2023-05-02T09:08:35.595Z,35.8
2023-05-02T09:09:36.677Z,36.4
2023-05-02T09:10:37.487Z,36.3
2023-05-02T09:11:38.701Z,37.8
2023-05-02T09:12:39.638Z,36.9
2023-05-02T09:13:40.519Z,36.1
2023-05-02T09:14:41.578Z,36.8
2023-05-02T09:15:42.765Z,37.2
2023-05-02T09:16:43.732Z,37.7
2023-05-02T09:17:44.651Z,37.4
2023-05-02T09:18:45.475Z,38
2023-05-02T09:19:46.634Z,37.4
2023-05-02T09:20:47.615Z,36.5
2023-05-02T09:21:48.821Z,35.8
2023-05-02T09:22:49.583Z,34.9
2023-05-02T09:23:50.577Z,35.1
2023-05-02T09:24:51.650Z,35.3
2023-05-02T09:25:52.629Z,36
2023-05-02T09:26:53.587Z,36
2023-05-02T09:27:54.794Z,35.5
2023-05-02T09:28:55.586Z,35.2
2023-05-02T09:29:56.527Z,35.1
2023-05-02T09:30:57.892Z,35.3
2023-05-02T09:31:58.562Z,35
2023-05-02T09:32:59.747Z,35
2023-05-02T09:34:00.636Z,36.5
2023-05-02T09:35:01.963Z,36.9
2023-05-02T09:36:02.627Z,36.7
2023-05-02T09:37:03.608Z,36.7
2023-05-02T09:38:04.664Z,35.8
2023-05-02T09:39:06.204Z,35.2
2023-05-02T09:40:07.717Z,35.5
2023-05-02T09:41:08.687Z,35.9
2023-05-02T09:42:09.675Z,36.1
2023-05-02T09:43:10.794Z,36.2
2023-05-02T09:44:11.679Z,36.4
2023-05-02T09:45:12.654Z,36.9
2023-05-02T09:46:13.730Z,36.5
2023-05-02T09:47:14.688Z,36.3
2023-05-02T09:48:15.534Z,36.8
2023-05-02T09:49:16.596Z,36.2
2023-05-02T09:50:17.648Z,36.6
2023-05-02T09:51:18.515Z,37
2023-05-02T09:52:19.555Z,37
2023-05-02T09:53:20.647Z,37.3
2023-05-02T09:54:21.557Z,38.2
2023-05-02T09:55:22.564Z,38
2023-05-02T09:56:24.890Z,38
2023-05-02T09:57:25.526Z,37.1
2023-05-02T09:58:26.559Z,37.7
2023-05-02T09:59:27.504Z,36.3
2023-05-02T10:00:28.623Z,36.2
2023-05-02T10:01:29.724Z,36.1
2023-05-02T10:02:31.150Z,35.5
2023-05-02T10:03:32.534Z,34.9
2023-05-02T10:04:34.623Z,35.8
2023-05-02T10:05:35.682Z,35.4
2023-05-02T10:06:37.165Z,34.8
2023-05-02T10:07:38.649Z,35
2023-05-02T10:08:39.562Z,35.6
2023-05-02T10:09:40.541Z,35.4
2023-05-02T10:10:42.300Z,35.2
2023-05-02T10:11:43.653Z,35.1
2023-05-02T10:12:44.530Z,35.7
2023-05-02T10:13:45.684Z,34.8
2023-05-02T10:14:46.677Z,35.2
2023-05-02T10:15:47.578Z,34.7
2023-05-02T10:16:48.547Z,34.4
2023-05-02T10:17:49.721Z,34.3
2023-05-02T10:18:50.620Z,34.7
2023-05-02T10:19:51.617Z,34.7
2023-05-02T10:20:52.608Z,36.5
2023-05-02T10:21:53.630Z,35.6
2023-05-02T10:22:54.663Z,33.6
2023-05-02T10:23:55.617Z,33.6
2023-05-02T10:24:56.632Z,31.6
2023-05-02T10:25:58.733Z,31.5
2023-05-02T10:26:58.738Z,31
2023-05-02T10:27:59.824Z,31.2
2023-05-02T10:29:00.695Z,31.2
2023-05-02T10:30:01.839Z,31
2023-05-02T10:31:02.732Z,30.6
2023-05-02T10:32:04.347Z,31
2023-05-02T10:33:06.256Z,31
2023-05-02T10:34:07.750Z,29.2
2023-05-02T10:35:08.694Z,29.5
2023-05-02T10:36:09.715Z,30.3
2023-05-02T10:37:10.836Z,30.3
2023-05-02T10:38:11.701Z,30.9
2023-05-02T10:39:12.614Z,30.2
2023-05-02T10:40:13.646Z,30
2023-05-02T10:41:14.590Z,30.3
2023-05-02T10:42:16.270Z,32
2023-05-02T10:43:17.632Z,31
2023-05-02T10:44:18.782Z,31
2023-05-02T10:45:20.000Z,31.6
2023-05-02T10:46:22.026Z,31.8
2023-05-02T10:47:24.023Z,32.5
2023-05-02T10:48:25.956Z,32.4
2023-05-02T10:49:26.624Z,30.4
2023-05-02T10:50:28.194Z,30.8
2023-05-02T10:51:29.427Z,30.7
2023-05-02T10:52:30.917Z,30.8
2023-05-02T10:53:32.188Z,30
2023-05-02T10:54:33.788Z,30.1
2023-05-02T10:55:34.990Z,30.4
2023-05-02T10:56:36.913Z,29.7
2023-05-02T10:57:37.693Z,29
2023-05-02T10:58:38.736Z,29.4
2023-05-02T10:59:39.752Z,29.7
2023-05-02T11:00:40.697Z,29.7
2023-05-02T11:01:41.714Z,29.9
2023-05-02T11:02:44.750Z,29.5
2023-05-02T11:03:45.894Z,29.3
2023-05-02T11:04:48.251Z,29.6
2023-05-02T11:05:50.147Z,29
2023-05-02T11:06:52.313Z,29.5
2023-05-02T11:07:54.135Z,29.4
2023-05-02T11:08:55.692Z,29.7
2023-05-02T11:09:57.476Z,30.1
2023-05-02T11:10:58.814Z,29
2023-05-02T11:11:59.892Z,29.3
2023-05-02T11:13:00.896Z,29.4
2023-05-02T11:14:01.959Z,29.2
2023-05-02T11:15:03.075Z,29.4
2023-05-02T11:16:03.775Z,28.4
2023-05-02T11:17:05.192Z,28.2
2023-05-02T11:18:07.114Z,27.9
2023-05-02T11:19:08.874Z,27.6
2023-05-02T11:20:10.459Z,27.2
2023-05-02T11:21:11.831Z,27.4
2023-05-02T11:22:12.631Z,27.3
2023-05-02T11:23:13.800Z,28.6
2023-05-02T11:24:15.055Z,29.9
2023-05-02T11:25:17.340Z,29
2023-05-02T11:26:18.856Z,28.3
2023-05-02T11:27:19.733Z,28.4
2023-05-02T11:28:20.789Z,27.6
2023-05-02T11:29:21.847Z,27.5
2023-05-02T11:30:22.783Z,28
2023-05-02T11:31:23.690Z,27.1
2023-05-02T11:32:25.104Z,27.9
2023-05-02T11:33:26.917Z,27.6
2023-05-02T11:34:28.128Z,27.4
2023-05-02T11:35:30.435Z,29
2023-05-02T11:36:31.843Z,29.1
2023-05-02T11:37:32.954Z,29.7
2023-05-02T11:38:33.893Z,29.9
2023-05-02T11:39:34.728Z,28.3
2023-05-02T11:40:35.820Z,28.1
2023-05-02T11:41:36.863Z,27.7
2023-05-02T11:42:41.552Z,27.2
2023-05-02T11:43:42.821Z,27.5
2023-05-02T11:44:43.835Z,29
2023-05-02T11:45:44.708Z,29.3
2023-05-02T11:46:45.986Z,28.8
2023-05-02T11:47:47.793Z,28.2
2023-05-02T11:48:48.684Z,27.9
2023-05-02T11:49:49.781Z,27.7
2023-05-02T11:50:50.951Z,27.6
2023-05-02T11:51:51.780Z,27.8
2023-05-02T11:52:52.756Z,28.5
2023-05-02T11:53:53.698Z,29.6
2023-05-02T11:54:54.945Z,29.8
2023-05-02T11:55:55.957Z,30.6
2023-05-02T11:56:56.575Z,29.7
2023-05-02T11:57:57.695Z,29.1
2023-05-02T11:58:58.755Z,29.3
2023-05-02T11:59:59.645Z,29
2023-05-02T12:01:00.701Z,29.3
2023-05-02T12:02:01.687Z,30.4
2023-05-02T12:03:02.879Z,29.8
2023-05-02T12:04:03.906Z,29.8
2023-05-02T12:05:05.107Z,30.2
2023-05-02T12:06:06.084Z,29.9
2023-05-02T12:07:09.067Z,29.8
2023-05-02T12:08:09.068Z,29.8
2023-05-02T12:09:11.290Z,30.8
2023-05-02T12:10:12.799Z,31.4
2023-05-02T12:11:14.843Z,30.4
2023-05-02T12:12:16.743Z,30
2023-05-02T12:13:17.841Z,29.9
2023-05-02T12:14:18.947Z,30
2023-05-02T12:15:19.947Z,30
2023-05-02T12:16:21.612Z,30.5
2023-05-02T12:17:23.065Z,29.5
2023-05-02T12:18:24.978Z,30
2023-05-02T12:19:28.543Z,29.8
2023-05-02T12:20:29.784Z,29.8
2023-05-02T12:21:30.825Z,29.8
2023-05-02T12:22:31.793Z,30.7
2023-05-02T12:23:33.652Z,30.7
2023-05-02T12:24:33.739Z,29.5
2023-05-02T12:25:34.856Z,31.2
2023-05-02T12:26:35.924Z,30.2
2023-05-02T12:27:36.918Z,31.1
2023-05-02T12:28:37.874Z,33.2
2023-05-02T12:29:39.239Z,34
2023-05-02T12:30:40.855Z,34.7
2023-05-02T12:31:42.003Z,35.3
2023-05-02T12:32:42.815Z,35.8
2023-05-02T12:33:43.798Z,36.6
2023-05-02T12:34:46.247Z,37.4
2023-05-02T12:35:48.090Z,37.7
2023-05-02T12:36:49.756Z,38.6
2023-05-02T12:37:51.759Z,38.6
2023-05-02T12:38:52.807Z,39.5
2023-05-02T12:39:54.260Z,40.8
2023-05-02T12:40:55.737Z,41.4
2023-05-02T12:41:56.807Z,42.3
2023-05-02T12:42:57.756Z,42.9
2023-05-02T12:43:58.760Z,44.2
2023-05-02T12:44:59.747Z,44.9
2023-05-02T12:46:02.007Z,45.4
2023-05-02T12:47:03.086Z,45.7
2023-05-02T12:48:04.507Z,45.5
2023-05-02T12:49:08.071Z,45.9
2023-05-02T12:50:10.333Z,45.6
2023-05-02T12:51:11.947Z,45.7
2023-05-02T12:52:12.932Z,45.7
2023-05-02T12:53:14.511Z,45.8
2023-05-02T12:54:15.716Z,46.4
2023-05-02T12:55:16.696Z,47
2023-05-02T12:56:17.714Z,47.4
2023-05-02T12:57:18.887Z,48.2
2023-05-02T12:58:19.880Z,48.9
2023-05-02T12:59:20.849Z,49.7
2023-05-02T13:00:21.656Z,50
2023-05-02T13:01:22.838Z,49.7
2023-05-02T13:02:23.877Z,49.8
2023-05-02T13:03:24.807Z,49.9
2023-05-02T13:04:26.018Z,49.8
2023-05-02T13:05:26.942Z,50.1
2023-05-02T13:06:28.339Z,50.3
2023-05-02T13:07:29.995Z,50.5
2023-05-02T13:08:30.758Z,50.3
2023-05-02T13:09:31.688Z,50.3
2023-05-02T13:10:33.731Z,50.4
2023-05-02T13:11:34.873Z,49.4
2023-05-02T13:12:35.813Z,49.4
2023-05-02T13:13:37.331Z,49.6
2023-05-02T13:14:38.937Z,49.6
2023-05-02T13:15:39.787Z,49.9
2023-05-02T13:16:41.104Z,50.5
2023-05-02T13:17:41.946Z,51
2023-05-02T13:18:44.067Z,50.2
2023-05-02T13:19:54.155Z,50.5
2023-05-02T13:20:45.732Z,50.7
2023-05-02T13:21:46.992Z,51
2023-05-02T13:22:48.102Z,51.4
2023-05-02T13:23:52.215Z,51.6
2023-05-02T13:24:54.273Z,52.1
2023-05-02T13:25:55.966Z,52.3
2023-05-02T13:26:57.248Z,52.7
2023-05-02T13:27:59.064Z,52.8
2023-05-02T13:29:00.917Z,52.4
2023-05-02T13:30:04.040Z,51.8
2023-05-02T13:31:03.034Z,50.8
2023-05-02T13:32:04.224Z,50.9
2023-05-02T13:33:05.941Z,50.2
2023-05-02T13:34:06.690Z,50.6
2023-05-02T13:35:07.772Z,50.2
2023-05-02T13:36:08.882Z,49.9
2023-05-02T13:37:09.782Z,49.6
2023-05-02T13:38:11.633Z,49.4
2023-05-02T13:39:12.891Z,48.9
2023-05-02T13:40:13.982Z,47.9
2023-05-02T13:41:14.940Z,47.3